Time;durP1;ratioP1;P1;durP2;ratioP2;P2;SDS_P1;SDS_P2;PMS_P1;PMS_P2;Temp;Humidity;BMP_temperature;BMP_pressure;BME280_temperature;BME280_humidity;BME280_pressure;Samples;Min_cycle;Max_cycle;Signal;HPM_P1;HPM_P2
2022/11/04 00:02:55;;;;;;;1.63;1.50;;;;;;;-2.22;76.82;95625.94;6152793;28;20055;-65
2022/11/04 00:06:04;;;;;;;2.10;1.27;;;;;;;-2.27;76.74;95619.19;6152318;28;20489;-66
2022/11/04 00:09:07;;;;;;;2.58;1.70;;;;;;;-2.27;76.61;95629.50;6173444;28;20138;-66
2022/11/04 00:12:23;;;;;;;2.53;1.95;;;;;;;-2.23;77.00;95629.41;6189338;28;20055;-66
2022/11/04 00:18:49;;;;;;;2.78;1.63;;;;;;;-2.13;76.31;95633.31;6185133;28;20199;-67
2022/11/04 00:28:43;;;;;;;1.95;1.60;;;;;;;-2.21;76.32;95637.91;6186213;28;20049;-66
2022/11/04 00:35:09;;;;;;;2.13;1.50;;;;;;;-2.27;77.06;95634.63;6171317;28;20051;-66
2022/11/04 00:38:13;;;;;;;1.60;1.37;;;;;;;-2.27;76.71;95634.63;6149354;28;20787;-66
2022/11/04 00:41:27;;;;;;;1.33;1.23;;;;;;;-2.35;76.51;95626.34;6144439;28;20055;-65
2022/11/04 00:44:28;;;;;;;1.20;1.10;;;;;;;-2.45;77.04;95626.72;6148045;28;20435;-67
2022/11/04 00:47:32;;;;;;;1.40;1.30;;;;;;;-2.48;77.00;95630.22;6161678;28;20065;-66
2022/11/04 00:50:36;;;;;;;1.52;1.27;;;;;;;-2.45;77.17;95630.13;6151695;28;20042;-67
2022/11/04 00:53:37;;;;;;;1.55;1.10;;;;;;;-2.56;77.41;95616.78;6161670;28;21750;-66
2022/11/04 00:56:40;;;;;;;1.80;1.38;;;;;;;-2.57;77.13;95636.53;6158784;28;20408;-65
2022/11/04 00:59:44;;;;;;;1.77;1.58;;;;;;;-2.60;77.29;95625.50;6164951;28;20069;-66
2022/11/04 01:02:48;;;;;;;2.35;1.40;;;;;;;-2.62;76.85;95629.84;6187419;28;20059;-65
2022/11/04 01:05:56;;;;;;;3.15;1.50;;;;;;;-2.83;76.58;95628.81;6259723;28;20048;-67
2022/11/04 01:09:00;;;;;;;2.00;1.13;;;;;;;-3.09;77.08;95632.22;6263930;28;20101;-66
2022/11/04 01:12:01;;;;;;;1.38;1.20;;;;;;;-3.28;77.24;95626.81;6258396;28;20041;-66
2022/11/04 01:15:03;;;;;;;1.40;1.30;;;;;;;-3.33;77.09;95628.69;6262700;28;20060;-66
2022/11/04 01:18:05;;;;;;;1.17;1.00;;;;;;;-3.33;77.13;95628.69;6274250;28;20399;-67
2022/11/04 01:21:08;;;;;;;1.25;1.15;;;;;;;-3.38;77.55;95631.38;6270165;28;20049;-66
2022/11/04 01:24:14;;;;;;;1.90;1.38;;;;;;;-3.19;77.06;95629.94;6268419;28;20500;-66
2022/11/04 01:27:21;;;;;;;1.30;1.20;;;;;;;-3.21;76.86;95621.41;6276229;28;20044;-65
2022/11/04 01:30:24;;;;;;;1.23;1.10;;;;;;;-3.22;77.00;95617.16;6269900;28;20429;-67
2022/11/04 01:33:26;;;;;;;1.67;1.02;;;;;;;-3.25;76.90;95614.69;6253338;28;20183;-66
2022/11/04 01:36:28;;;;;;;1.58;1.27;;;;;;;-3.30;77.18;95618.28;6269163;28;20079;-66
2022/11/04 01:39:29;;;;;;;1.05;0.95;;;;;;;-3.33;77.05;95619.22;6274429;28;20044;-66
2022/11/04 01:42:31;;;;;;;1.33;1.05;;;;;;;-3.37;77.37;95615.03;6271698;28;20626;-66
2022/11/04 01:45:34;;;;;;;2.38;1.40;;;;;;;-3.34;77.57;95620.13;6247889;28;20040;-65
2022/11/04 01:48:36;;;;;;;1.10;1.00;;;;;;;-3.27;77.39;95624.19;6245577;28;20044;-66
2022/11/04 01:51:40;;;;;;;1.90;1.13;;;;;;;-3.17;77.54;95623.00;6233425;28;21066;-65
2022/11/04 01:54:46;;;;;;;1.13;0.90;;;;;;;-3.05;76.98;95618.38;6250038;28;20427;-65
2022/11/04 01:57:51;;;;;;;1.15;1.00;;;;;;;-2.99;77.42;95623.31;6252382;28;20052;-66
2022/11/04 02:00:52;;;;;;;1.20;1.10;;;;;;;-2.91;77.04;95615.38;6240760;28;20048;-66
2022/11/04 02:04:24;;;;;;;2.58;1.67;;;;;;;-2.84;77.30;95625.41;6203419;28;20682;-66
2022/11/04 02:07:22;;;;;;;1.17;0.93;;;;;;;-2.75;77.10;95614.78;6147356;28;20776;-66
2022/11/04 02:10:27;;;;;;;1.08;0.98;;;;;;;-2.71;77.01;95613.81;6141244;28;20038;-65
2022/11/04 02:13:32;;;;;;;1.10;1.00;;;;;;;-2.65;76.83;95611.94;6158027;28;20047;-66
2022/11/04 02:16:43;;;;;;;1.02;0.93;;;;;;;-2.57;76.80;95623.66;6176243;28;20058;-66
2022/11/04 02:20:21;;;;;;;1.10;1.00;;;;;;;-2.49;76.53;95623.41;6188808;28;20082;-65
2022/11/04 02:23:46;;;;;;;0.50;0.50;;;;;;;-2.49;76.03;95613.09;6204173;28;20062;-65
2022/11/04 02:27:06;;;;;;;1.15;0.90;;;;;;;-2.46;76.06;95607.84;6154733;28;20078;-66
2022/11/04 02:30:15;;;;;;;0.80;0.60;;;;;;;-2.45;76.18;95613.84;6135386;28;21225;-67
2022/11/04 02:33:29;;;;;;;1.33;0.82;;;;;;;-2.44;75.70;95615.50;6139302;28;20059;-66
2022/11/04 02:36:46;;;;;;;;;;;;;;;-2.38;76.00;95615.28;6162494;28;20510;-66
2022/11/04 02:40:03;;;;;;;1.55;0.70;;;;;;;-2.37;75.73;95612.69;6143483;28;19925;-65
2022/11/04 02:43:22;;;;;;;0.98;0.80;;;;;;;-2.40;75.41;95617.94;6146808;28;20505;-65
2022/11/04 02:46:33;;;;;;;0.80;0.80;;;;;;;-2.36;74.47;95623.81;6132040;28;20055;-67
2022/11/04 02:49:51;;;;;;;0.73;0.60;;;;;;;-2.43;74.97;95628.34;6143371;28;20043;-65
2022/11/04 02:53:01;;;;;;;1.05;0.70;;;;;;;-2.38;74.48;95629.00;6163150;28;20039;-66
2022/11/04 02:56:09;;;;;;;0.90;0.60;;;;;;;-2.39;74.79;95627.34;6185104;28;20036;-66
2022/11/04 02:59:43;;;;;;;0.77;0.60;;;;;;;-2.39;74.79;95629.06;6146934;28;20042;-67
2022/11/04 03:02:54;;;;;;;0.82;0.70;;;;;;;-2.38;74.72;95621.28;6154109;28;20398;-66
2022/11/04 03:05:57;;;;;;;0.82;0.80;;;;;;;-2.32;74.14;95625.38;6144682;28;20297;-66
2022/11/04 03:09:02;;;;;;;1.27;1.00;;;;;;;-2.31;74.50;95633.06;6152539;28;20111;-65
2022/11/04 03:12:13;;;;;;;2.15;1.20;;;;;;;-2.20;74.51;95639.59;6139969;28;20045;-65
2022/11/04 03:15:25;;;;;;;1.90;1.10;;;;;;;-2.22;74.57;95638.81;6194726;28;21046;-66
2022/11/04 03:18:37;;;;;;;1.02;0.90;;;;;;;-2.19;74.65;95638.69;6146044;28;20048;-65
2022/11/04 03:21:49;;;;;;;0.85;0.77;;;;;;;-2.12;74.92;95640.19;6165965;28;20142;-65
2022/11/04 03:24:55;;;;;;;0.90;0.85;;;;;;;-2.09;74.01;95640.06;6138644;28;20052;-66
2022/11/04 03:28:15;;;;;;;1.15;1.00;;;;;;;-1.97;73.95;95638.81;6171966;28;20043;-66
2022/11/04 03:31:29;;;;;;;0.80;0.75;;;;;;;-2.04;74.16;95640.72;6178851;28;20604;-66
2022/11/04 03:34:32;;;;;;;0.70;0.70;;;;;;;-1.92;73.68;95650.63;6205539;28;20576;-66
2022/11/04 03:37:39;;;;;;;2.28;1.15;;;;;;;-1.89;73.75;95642.78;6246941;28;20191;-66
2022/11/04 03:40:48;;;;;;;0.88;0.75;;;;;;;-1.84;73.01;95643.47;6133600;28;20055;-68
2022/11/04 03:43:52;;;;;;;0.50;0.50;;;;;;;-1.92;73.33;95648.06;6131472;28;20047;-66
2022/11/04 03:46:59;;;;;;;0.60;0.60;;;;;;;-1.97;73.47;95637.06;6148210;28;20050;-66
2022/11/04 03:50:12;;;;;;;0.88;0.65;;;;;;;-2.00;74.13;95647.47;6144592;28;20202;-67
2022/11/04 03:53:26;;;;;;;0.60;0.57;;;;;;;-2.09;74.22;95642.66;6149939;28;20036;-66
2022/11/04 03:56:46;;;;;;;0.70;0.70;;;;;;;-1.97;74.45;95647.38;6147241;28;20047;-66
2022/11/04 03:59:55;;;;;;;1.00;0.50;;;;;;;-1.96;74.49;95643.88;6146613;28;20053;-66
2022/11/04 04:03:10;;;;;;;0.70;0.70;;;;;;;-1.96;74.85;95649.03;6150212;28;20058;-66
2022/11/04 04:06:18;;;;;;;1.08;0.85;;;;;;;-1.87;74.42;95648.75;6177458;28;20042;-67
2022/11/04 04:09:29;;;;;;;2.30;0.88;;;;;;;-2.00;74.75;95647.47;6177632;28;20046;-67
2022/11/04 04:12:40;;;;;;;1.23;0.60;;;;;;;-2.03;75.32;95650.16;6198877;28;20041;-65
2022/11/04 04:15:55;;;;;;;0.70;0.70;;;;;;;-2.07;75.67;95646.00;6191299;28;20046;-67
2022/11/04 04:19:19;;;;;;;1.42;0.85;;;;;;;-2.07;76.40;95651.16;6185634;28;20181;-66
2022/11/04 04:22:27;;;;;;;1.52;1.00;;;;;;;-2.08;76.55;95639.16;6156600;28;20038;-66
2022/11/04 04:29:01;;;;;;;1.05;0.95;;;;;;;-2.13;77.05;95641.06;6177948;28;20524;-66
2022/11/04 04:32:08;;;;;;;1.30;0.90;;;;;;;-1.99;76.82;95644.00;6171923;28;20054;-67
2022/11/04 04:45:33;;;;;;;1.58;1.02;;;;;;;-1.51;75.25;95656.00;6183576;28;20422;-67
2022/11/04 04:48:37;;;;;;;1.73;1.00;;;;;;;-1.44;74.55;95662.66;6184320;28;20047;-67
2022/11/04 04:51:43;;;;;;;2.92;1.20;;;;;;;-1.38;74.92;95657.25;6156744;28;20042;-68
2022/11/04 04:54:47;;;;;;;2.08;1.30;;;;;;;-1.24;74.79;95653.31;6159561;28;20139;-66
2022/11/04 04:57:51;;;;;;;2.75;1.38;;;;;;;-1.19;74.61;95646.22;6208524;28;20382;-67
2022/11/04 05:00:52;;;;;;;1.60;1.50;;;;;;;-1.00;74.11;95657.53;6205644;28;20655;-67
2022/11/04 05:03:56;;;;;;;1.27;1.00;;;;;;;-0.88;73.10;95655.34;6206017;28;20429;-67
2022/11/04 05:07:00;;;;;;;1.38;1.23;;;;;;;-0.99;73.22;95645.44;6213475;28;20138;-67
2022/11/04 05:10:02;;;;;;;1.20;0.93;;;;;;;-0.75;72.46;95656.56;6207121;28;20547;-67
2022/11/04 05:16:27;;;;;;;1.35;1.25;;;;;;;-0.66;72.04;95648.44;6201767;28;20036;-67
2022/11/04 05:19:29;;;;;;;1.20;1.15;;;;;;;-0.49;71.97;95658.94;6156094;28;20046;-67
2022/11/04 05:22:33;;;;;;;1.40;1.08;;;;;;;-0.48;71.20;95650.28;6167411;28;20329;-66
2022/11/04 05:25:39;;;;;;;2.20;1.23;;;;;;;-0.38;71.30;95666.25;6178418;28;20074;-67
2022/11/04 05:28:46;;;;;;;1.17;1.10;;;;;;;-0.47;70.99;95646.78;6188877;28;20043;-66
2022/11/04 05:31:47;;;;;;;2.00;1.00;;;;;;;-0.51;71.49;95659.88;6173217;28;20040;-67
2022/11/04 05:34:49;;;;;;;1.27;1.05;;;;;;;-0.55;71.18;95656.59;6184628;28;20070;-67
2022/11/04 05:37:53;;;;;;;1.85;0.95;;;;;;;-0.68;71.22;95657.97;6184327;28;20111;-68
2022/11/04 05:40:57;;;;;;;1.73;1.30;;;;;;;-0.70;72.40;95660.66;6192953;28;20042;-67
2022/11/04 05:44:04;;;;;;;1.70;1.13;;;;;;;-0.64;72.67;95664.72;6171749;28;20058;-67
2022/11/04 05:47:05;;;;;;;;;;;;;;;-0.36;71.72;95663.63;6167509;28;20049;-70
2022/11/04 05:50:09;;;;;;;1.33;1.02;;;;;;;-0.31;71.52;95656.47;6173321;28;20380;-66
2022/11/04 05:53:10;;;;;;;1.10;0.90;;;;;;;-0.16;71.38;95666.19;6153706;28;20054;-68
2022/11/04 05:56:12;;;;;;;1.98;0.85;;;;;;;0.06;70.82;95660.97;6161560;28;20050;-67
2022/11/04 05:59:18;;;;;;;0.70;0.70;;;;;;;0.31;70.27;95657.28;6210932;28;20044;-67
2022/11/04 06:02:19;;;;;;;2.75;1.23;;;;;;;0.55;69.01;95663.16;6207671;28;20056;-67
2022/11/04 06:05:22;;;;;;;1.55;1.30;;;;;;;0.97;68.84;95665.53;6249580;28;20139;-66
2022/11/04 06:08:42;;;;;;;1.25;0.80;;;;;;;1.13;67.06;95657.88;6275932;28;20044;-68
2022/11/04 06:11:46;;;;;;;;;;;;;;;1.22;65.33;95669.56;6270752;28;20040;-68
2022/11/04 06:14:49;;;;;;;0.63;0.60;;;;;;;1.13;65.49;95665.63;6263150;28;19940;-68
2022/11/04 06:17:56;;;;;;;0.65;0.52;;;;;;;1.03;65.31;95664.41;6246908;28;20048;-69
2022/11/04 06:21:12;;;;;;;0.60;0.57;;;;;;;0.61;66.24;95665.47;6259832;28;20892;-69
2022/11/04 06:24:16;;;;;;;0.60;0.60;;;;;;;0.57;66.01;95661.34;6252924;28;20471;-68
2022/11/04 06:27:22;;;;;;;0.60;0.60;;;;;;;0.42;66.81;95663.69;6249623;28;20032;-68
2022/11/04 06:30:26;;;;;;;1.08;0.82;;;;;;;0.54;67.33;95666.63;6248550;28;20040;-71
2022/11/04 06:33:31;;;;;;;0.70;0.70;;;;;;;0.78;66.65;95675.88;6250803;28;20044;-68
2022/11/04 06:36:33;;;;;;;1.33;0.97;;;;;;;0.90;66.84;95672.72;6250953;28;20044;-69
2022/11/04 06:39:34;;;;;;;1.15;1.05;;;;;;;1.10;66.53;95681.34;6250106;28;20439;-70
2022/11/04 06:42:39;;;;;;;2.45;1.20;;;;;;;1.16;65.72;95675.88;6269333;28;20784;-69
2022/11/04 06:45:40;;;;;;;1.40;0.98;;;;;;;1.06;66.83;95667.69;6248642;28;20669;-69
2022/11/04 06:48:41;;;;;;;0.80;0.80;;;;;;;1.13;67.01;95676.00;6260662;28;20044;-71
2022/11/04 06:51:49;;;;;;;0.90;0.90;;;;;;;1.00;67.99;95665.38;6265255;28;20125;-70
2022/11/04 06:54:53;;;;;;;0.93;0.82;;;;;;;1.11;68.42;95667.50;6266944;28;20056;-71
2022/11/04 06:57:54;;;;;;;1.40;0.80;;;;;;;1.30;67.54;95657.94;6265703;28;20393;-69
2022/11/04 07:01:01;;;;;;;1.25;1.10;;;;;;;2.12;66.90;95661.69;6252527;28;20131;-71
2022/11/04 07:04:05;;;;;;;0.95;0.65;;;;;;;2.99;64.69;95670.09;6197234;28;20059;-72
2022/11/04 07:07:06;;;;;;;0.85;0.80;;;;;;;3.80;62.21;95667.34;6153011;28;20780;-68
2022/11/04 07:10:12;;;;;;;0.80;0.80;;;;;;;3.62;60.58;95673.56;6142042;28;20223;-71
2022/11/04 07:13:16;;;;;;;0.50;0.43;;;;;;;2.68;61.52;95666.53;6150708;28;20126;-71
2022/11/04 07:16:21;;;;;;;0.50;0.50;;;;;;;2.22;62.85;95668.94;6153911;28;20069;-70
2022/11/04 07:19:27;;;;;;;0.40;0.40;;;;;;;2.08;63.59;95668.81;6156607;28;20046;-70
2022/11/04 07:22:29;;;;;;;0.52;0.50;;;;;;;2.35;63.09;95673.47;6161045;28;20072;-68
2022/11/04 07:25:31;;;;;;;0.65;0.63;;;;;;;2.01;63.31;95664.84;6146584;28;20175;-69
2022/11/04 07:28:34;;;;;;;0.60;0.60;;;;;;;1.75;65.52;95673.91;6145180;28;20050;-70
2022/11/04 07:31:39;;;;;;;0.80;0.70;;;;;;;1.87;66.31;95667.25;6160848;28;20046;-68
2022/11/04 07:34:47;;;;;;;2.30;0.80;;;;;;;1.94;65.92;95669.50;6174808;28;20078;-68
2022/11/04 07:37:51;;;;;;;1.23;1.13;;;;;;;1.61;67.35;95666.81;6168009;28;20057;-69
2022/11/04 07:40:59;;;;;;;0.98;0.63;;;;;;;1.52;67.45;95662.91;6171535;28;20037;-67
2022/11/04 07:44:04;;;;;;;1.05;0.70;;;;;;;1.67;65.54;95661.34;6149410;28;20491;-68
2022/11/04 07:47:08;;;;;;;1.48;1.00;;;;;;;1.53;64.95;95663.78;6155826;28;20046;-62
2022/11/04 07:50:10;;;;;;;1.08;1.00;;;;;;;1.60;64.14;95670.31;6148424;28;21132;-64
2022/11/04 07:53:14;;;;;;;1.38;0.60;;;;;;;1.47;63.83;95664.03;6151918;28;20924;-62
2022/11/04 07:56:15;;;;;;;;;;;;;;;1.35;63.58;95668.06;6153228;28;20635;-62
2022/11/04 07:59:19;;;;;;;2.15;1.00;;;;;;;0.88;64.93;95661.63;6153721;28;19925;-62
2022/11/04 08:02:25;;;;;;;1.70;0.80;;;;;;;0.70;65.82;95671.97;6148291;28;20046;-63
2022/11/04 08:05:32;;;;;;;1.58;0.77;;;;;;;0.66;65.76;95671.28;6150319;28;20055;-62
2022/11/04 08:08:36;;;;;;;0.50;0.47;;;;;;;0.59;65.84;95675.03;6160980;28;20047;-63
2022/11/04 08:11:38;;;;;;;;;;;;;;;0.69;65.88;95663.38;6145655;28;20051;-61
2022/11/04 08:14:42;;;;;;;0.70;0.70;;;;;;;0.63;66.12;95655.88;6142547;28;19926;-63
2022/11/04 08:17:44;;;;;;;0.95;0.50;;;;;;;0.79;66.05;95661.19;6144900;28;20092;-63
2022/11/04 08:20:48;;;;;;;0.70;0.70;;;;;;;1.24;65.25;95673.75;6165770;28;20058;-63
2022/11/04 08:23:53;;;;;;;1.73;0.75;;;;;;;1.96;63.58;95679.81;6193218;28;20198;-62
2022/11/04 08:26:57;;;;;;;2.50;1.25;;;;;;;2.33;62.82;95676.19;6158255;28;20541;-63
2022/11/04 08:29:58;;;;;;;1.17;0.85;;;;;;;3.26;61.11;95679.91;6174233;28;20047;-63
2022/11/04 08:33:00;;;;;;;0.65;0.60;;;;;;;3.54;59.31;95672.25;6179202;28;20053;-63
2022/11/04 08:36:10;;;;;;;1.25;0.88;;;;;;;3.51;57.88;95677.63;6182605;28;20503;-63
2022/11/04 08:39:12;;;;;;;1.60;1.13;;;;;;;3.35;57.58;95671.59;6182773;28;20108;-64
2022/11/04 08:42:15;;;;;;;1.08;1.00;;;;;;;3.58;57.33;95672.91;6181275;28;20039;-64
2022/11/04 08:45:20;;;;;;;1.30;1.00;;;;;;;4.97;55.19;95670.81;6184439;28;20048;-64
2022/11/04 08:48:21;;;;;;;2.08;0.85;;;;;;;5.78;52.14;95679.56;6171786;28;20093;-63
2022/11/04 08:51:25;;;;;;;1.17;0.85;;;;;;;6.08;53.14;95681.94;6224608;28;20137;-63
2022/11/04 08:54:29;;;;;;;0.88;0.88;;;;;;;6.26;53.47;95684.28;6184397;28;20552;-62
2022/11/04 08:57:37;;;;;;;1.02;0.80;;;;;;;5.98;55.17;95690.50;6185093;28;20544;-63
2022/11/04 09:00:38;;;;;;;1.13;0.90;;;;;;;5.03;55.16;95680.84;6185925;28;20047;-62
2022/11/04 09:03:43;;;;;;;0.95;0.80;;;;;;;4.23;56.74;95683.06;6177802;28;20051;-62
2022/11/04 09:06:51;;;;;;;1.38;0.60;;;;;;;3.69;56.99;95680.13;6177729;28;20047;-62
2022/11/04 09:09:54;;;;;;;0.75;0.50;;;;;;;3.41;57.76;95689.47;6197665;28;20077;-62
2022/11/04 09:12:57;;;;;;;0.80;0.80;;;;;;;3.24;56.59;95684.38;6160011;28;20046;-62
2022/11/04 09:16:01;;;;;;;0.70;0.68;;;;;;;3.19;56.84;95682.00;6217864;28;20050;-62
2022/11/04 09:19:02;;;;;;;0.88;0.70;;;;;;;2.84;57.27;95686.53;6189341;28;20410;-61
2022/11/04 09:22:04;;;;;;;0.68;0.68;;;;;;;2.68;57.90;95697.69;6175187;28;20051;-61
2022/11/04 09:25:06;;;;;;;0.70;0.70;;;;;;;2.73;56.84;95691.44;6188916;28;20055;-62
2022/11/04 09:28:07;;;;;;;0.73;0.47;;;;;;;2.46;57.56;95694.53;6182264;28;20062;-61
2022/11/04 09:31:14;;;;;;;0.98;0.60;;;;;;;2.30;57.35;95694.50;6178391;28;20050;-61
2022/11/04 09:34:16;;;;;;;1.40;1.30;;;;;;;2.11;57.49;95694.59;6168814;28;20054;-63
2022/11/04 09:37:18;;;;;;;2.63;2.08;;;;;;;1.84;59.16;95683.84;6153375;28;20528;-62
2022/11/04 09:40:23;;;;;;;0.98;0.93;;;;;;;1.64;59.32;95692.56;6152183;28;20042;-62
2022/11/04 09:43:45;;;;;;;1.83;0.88;;;;;;;1.54;60.40;95687.00;6150605;28;20639;-62
2022/11/04 09:46:48;;;;;;;1.42;0.80;;;;;;;1.63;60.73;95696.09;6150893;28;20047;-61
2022/11/04 09:49:56;;;;;;;0.70;0.70;;;;;;;1.56;60.69;95689.53;6155385;28;20062;-64
2022/11/04 09:53:16;;;;;;;0.70;0.70;;;;;;;1.72;59.83;95685.25;6151512;28;20138;-65
2022/11/04 09:56:22;;;;;;;1.75;0.60;;;;;;;1.71;58.68;95699.16;6153314;28;20718;-65
2022/11/04 09:59:28;;;;;;;0.60;0.60;;;;;;;1.55;58.45;95693.03;6155031;28;20042;-68
2022/11/04 10:03:00;;;;;;;2.33;0.70;;;;;;;1.82;57.99;95695.22;6148562;28;20789;-69
2022/11/04 10:06:22;;;;;;;0.60;0.60;;;;;;;2.29;57.76;95699.75;6181302;28;20690;-65
2022/11/04 10:09:29;;;;;;;0.60;0.47;;;;;;;2.62;55.59;95703.22;6149400;28;20113;-65
2022/11/04 10:13:00;;;;;;;0.88;0.77;;;;;;;2.89;55.94;95706.13;6149232;28;20051;-65
2022/11/04 10:16:30;;;;;;;1.13;0.80;;;;;;;2.91;54.17;95709.47;6145670;28;20494;-63
2022/11/04 10:20:16;;;;;;;1.08;0.80;;;;;;;2.63;54.66;95707.50;6146162;28;20540;-66
2022/11/04 10:23:22;;;;;;;1.10;0.80;;;;;;;2.56;55.07;95710.50;6139804;28;20057;-65
2022/11/04 10:26:36;;;;;;;1.23;0.85;;;;;;;2.37;55.99;95718.38;6138812;28;20130;-66
2022/11/04 10:29:44;;;;;;;1.88;1.10;;;;;;;2.95;55.50;95715.38;6146463;28;20134;-65
2022/11/04 10:33:03;;;;;;;2.72;1.35;;;;;;;2.78;55.03;95734.44;6150328;28;20055;-65
2022/11/04 10:36:10;;;;;;;1.65;0.93;;;;;;;2.26;55.40;95729.31;6149648;28;20043;-66
2022/11/04 10:39:26;;;;;;;1.95;1.23;;;;;;;2.08;56.59;95735.44;6149153;28;20085;-66
2022/11/04 10:42:31;;;;;;;1.27;1.10;;;;;;;1.65;56.62;95735.75;6152965;28;20061;-66
2022/11/04 10:45:54;;;;;;;1.63;1.10;;;;;;;1.35;57.56;95743.22;6153894;28;20481;-65
2022/11/04 10:49:07;;;;;;;2.35;1.08;;;;;;;1.14;57.75;95745.06;6161431;28;20450;-66
2022/11/04 10:52:13;;;;;;;1.77;1.60;;;;;;;1.26;57.82;95744.50;6184966;28;20050;-65
2022/11/04 10:55:17;;;;;;;;;;;;;;;1.49;58.08;95756.38;6171997;28;20051;-66
2022/11/04 10:58:24;;;;;;;1.95;1.17;;;;;;;1.35;57.96;95759.59;6169780;28;20333;-67
2022/11/04 11:01:31;;;;;;;2.35;1.23;;;;;;;1.20;57.61;95755.13;6170948;28;20043;-66
2022/11/04 11:04:35;;;;;;;1.60;1.35;;;;;;;1.05;57.81;95756.69;6199177;28;20515;-66
2022/11/04 11:07:37;;;;;;;1.48;0.75;;;;;;;0.98;57.80;95755.25;6289291;28;20097;-65
2022/11/04 11:10:50;;;;;;;2.78;1.30;;;;;;;1.01;58.20;95759.47;6264514;28;20040;-65
2022/11/04 11:13:57;;;;;;;2.08;1.75;;;;;;;0.72;58.79;95768.53;6266441;28;20040;-65
2022/11/04 11:17:30;;;;;;;;;;;;;;;0.55;58.92;95766.69;6270701;28;20419;-65
2022/11/04 11:20:36;;;;;;;3.22;1.42;;;;;;;0.34;59.65;95777.06;6247542;28;19920;-66
2022/11/04 11:23:56;;;;;;;1.77;1.20;;;;;;;0.54;59.14;95770.16;6264013;28;20139;-65
2022/11/04 11:27:00;;;;;;;1.73;1.40;;;;;;;1.55;56.64;95786.34;6268095;28;20060;-64
2022/11/04 11:30:01;;;;;;;1.25;1.02;;;;;;;2.50;53.91;95784.34;6267955;28;20397;-66
2022/11/04 11:33:29;;;;;;;0.90;0.80;;;;;;;2.90;51.89;95793.53;6210136;28;20075;-65
2022/11/04 11:36:36;;;;;;;2.13;1.20;;;;;;;2.57;51.60;95798.69;6255313;28;20063;-66
2022/11/04 11:39:42;;;;;;;1.13;0.98;;;;;;;1.53;53.20;95803.75;6268002;28;20379;-65
2022/11/04 11:42:49;;;;;;;1.20;0.63;;;;;;;0.85;55.00;95811.09;6263321;28;20065;-66
2022/11/04 11:45:59;;;;;;;2.45;1.50;;;;;;;0.31;56.69;95816.00;6270805;28;20048;-65
2022/11/04 11:49:04;;;;;;;1.23;1.08;;;;;;;0.17;56.58;95828.63;6274388;28;20071;-65
2022/11/04 11:52:37;;;;;;;2.83;1.30;;;;;;;0.09;56.55;95820.34;6263639;28;20099;-66
2022/11/04 11:55:46;;;;;;;4.13;1.95;;;;;;;-0.06;56.57;95826.97;6252488;28;20040;-64
2022/11/04 11:58:55;;;;;;;1.73;1.40;;;;;;;-0.27;56.95;95824.31;6254974;28;20047;-65
2022/11/04 12:02:22;;;;;;;1.85;1.13;;;;;;;-0.24;57.11;95826.78;6257873;28;20425;-65
2022/11/04 12:05:41;;;;;;;1.30;1.17;;;;;;;-0.22;57.20;95837.09;6253715;28;20053;-65
2022/11/04 12:09:15;;;;;;;2.15;1.40;;;;;;;-0.36;57.06;95844.53;6259550;28;20228;-64
2022/11/04 12:12:32;;;;;;;1.83;1.30;;;;;;;-0.40;57.19;95853.28;6256675;28;20810;-65
2022/11/04 12:16:12;;;;;;;2.53;1.42;;;;;;;-0.34;56.90;95858.22;6256139;28;20048;-66
2022/11/04 12:20:06;;;;;;;1.33;1.20;;;;;;;-0.41;57.30;95862.78;6240597;28;20052;-65
2022/11/04 12:23:30;;;;;;;1.85;1.35;;;;;;;-0.47;56.99;95868.19;6250289;28;20520;-64
2022/11/04 12:26:38;;;;;;;1.77;1.40;;;;;;;-0.65;57.42;95867.16;6269785;28;20044;-65
2022/11/04 12:29:42;;;;;;;2.63;1.25;;;;;;;-0.86;58.68;95873.06;6293039;28;20047;-65
2022/11/04 12:32:43;;;;;;;;;;;;;;;-0.79;57.70;95877.97;6289559;28;20040;-65
2022/11/04 12:36:18;;;;;;;1.52;1.33;;;;;;;-1.03;58.33;95879.69;6247435;28;20278;-64
2022/11/04 12:39:33;;;;;;;1.10;1.00;;;;;;;-1.39;59.47;95886.94;6193280;28;20085;-65
2022/11/04 12:43:01;;;;;;;3.15;1.33;;;;;;;-1.43;60.07;95886.22;6193685;28;20038;-65
2022/11/04 12:46:22;;;;;;;1.70;1.35;;;;;;;-1.56;60.72;95884.09;6270896;28;20140;-65
2022/11/04 12:49:32;;;;;;;1.00;0.95;;;;;;;-1.62;60.13;95892.88;6268892;28;20048;-66
2022/11/04 12:52:55;;;;;;;1.33;1.05;;;;;;;-1.71;60.58;95888.00;6277552;28;20063;-65
2022/11/04 12:56:10;;;;;;;1.33;0.93;;;;;;;-1.86;61.39;95895.34;6295162;28;20052;-65
2022/11/04 12:59:33;;;;;;;1.20;1.10;;;;;;;-1.85;60.91;95894.44;6295749;28;20491;-65
2022/11/04 13:02:50;;;;;;;2.15;1.27;;;;;;;-2.03;61.28;95895.03;6289816;28;20132;-65
2022/11/04 13:06:14;;;;;;;1.92;1.20;;;;;;;-2.15;61.82;95897.97;6230918;28;20043;-65
2022/11/04 13:09:34;;;;;;;1.77;1.38;;;;;;;-2.26;61.92;95908.63;6169414;28;20134;-66
2022/11/04 13:12:40;;;;;;;2.58;1.20;;;;;;;-2.32;62.24;95901.94;6168384;28;20046;-65
2022/11/04 13:15:52;;;;;;;1.63;1.48;;;;;;;-2.40;62.09;95911.63;6233745;28;20050;-66
2022/11/04 13:18:57;;;;;;;2.47;1.35;;;;;;;-2.55;62.98;95901.75;6167366;28;20047;-66
2022/11/04 13:22:10;;;;;;;3.70;1.25;;;;;;;-2.62;63.03;95913.13;6168024;28;20047;-65
2022/11/04 13:25:20;;;;;;;2.95;1.42;;;;;;;-2.71;63.38;95921.94;6170018;28;20055;-66
2022/11/04 13:28:24;;;;;;;4.00;2.20;;;;;;;-2.76;63.43;95921.22;6168774;28;20137;-66
2022/11/04 13:32:00;;;;;;;3.15;2.05;;;;;;;-2.79;62.61;95923.88;6164870;28;20038;-65
2022/11/04 13:35:18;;;;;;;2.40;1.83;;;;;;;-2.84;63.53;95926.59;6162845;28;20039;-66
2022/11/04 13:38:28;;;;;;;3.55;1.73;;;;;;;-2.91;63.35;95925.06;6149222;28;20189;-66
2022/11/04 13:41:47;;;;;;;2.03;1.42;;;;;;;-2.84;63.18;95942.03;6151627;28;20046;-65
2022/11/04 13:44:57;;;;;;;3.58;1.40;;;;;;;-2.87;63.57;95947.25;6202725;28;20058;-66
2022/11/04 13:47:58;;;;;;;3.25;1.60;;;;;;;-2.87;63.41;95947.25;6151901;28;20055;-66
2022/11/04 13:51:12;;;;;;;2.95;1.92;;;;;;;-2.96;63.55;95957.81;6148709;28;20051;-65
2022/11/04 13:54:24;;;;;;;4.68;2.15;;;;;;;-2.98;63.85;95964.72;6149442;28;20494;-67
2022/11/04 13:57:32;;;;;;;2.78;2.17;;;;;;;-3.05;64.15;95953.75;6148794;28;20054;-66
2022/11/04 14:00:38;;;;;;;1.95;1.52;;;;;;;-3.07;64.32;95959.81;6152663;28;20039;-65
2022/11/04 14:03:50;;;;;;;1.58;1.48;;;;;;;-3.09;64.06;95959.00;6192843;28;20141;-65
2022/11/04 14:07:07;;;;;;;1.58;1.17;;;;;;;-3.05;64.26;95963.22;6259551;28;20480;-65
2022/11/04 14:10:48;;;;;;;2.90;1.40;;;;;;;-3.05;64.72;95968.34;6266227;28;20054;-65
2022/11/04 14:14:01;;;;;;;2.75;1.40;;;;;;;-3.01;64.56;95980.25;6258307;28;20037;-65
2022/11/04 14:17:06;;;;;;;2.13;1.58;;;;;;;-2.99;64.88;95974.19;6258904;28;20040;-66
2022/11/04 14:20:23;;;;;;;2.35;1.80;;;;;;;-2.96;64.49;95973.25;6259880;28;20427;-64
2022/11/04 14:23:28;;;;;;;3.42;1.75;;;;;;;-2.82;64.23;95986.59;6259384;28;20056;-62
2022/11/04 14:26:46;;;;;;;2.85;1.85;;;;;;;-2.83;64.25;95995.22;6257229;28;20052;-63
2022/11/04 14:29:52;;;;;;;2.88;1.75;;;;;;;-2.87;64.26;95993.59;6275010;28;20044;-62
2022/11/04 14:33:02;;;;;;;3.72;2.05;;;;;;;-2.86;64.26;95999.59;6259009;28;20521;-62
2022/11/04 14:36:19;;;;;;;4.47;2.85;;;;;;;-2.96;64.55;95999.00;6296135;28;20044;-62
2022/11/04 14:39:29;;;;;;;5.15;2.80;;;;;;;-3.08;64.40;96009.63;6300682;28;20194;-62
2022/11/04 14:42:54;;;;;;;3.72;2.33;;;;;;;-3.13;64.35;96012.28;6293982;28;20516;-62
2022/11/04 14:45:56;;;;;;;3.42;2.03;;;;;;;-3.22;64.38;96013.38;6284809;28;20046;-61
2022/11/04 14:49:03;;;;;;;4.47;2.75;;;;;;;-3.19;64.10;96023.56;6301213;28;20043;-62
2022/11/04 14:52:32;;;;;;;4.05;2.63;;;;;;;-3.14;63.93;96026.03;6297215;28;20190;-63
2022/11/04 14:55:34;;;;;;;10.13;3.60;;;;;;;-3.21;63.85;96016.78;6297538;28;20055;-65
2022/11/04 14:58:50;;;;;;;4.95;3.20;;;;;;;-3.25;63.98;96028.03;6294578;28;20044;-66
2022/11/04 15:01:55;;;;;;;6.50;2.72;;;;;;;-3.28;64.07;96028.94;6295644;28;20633;-65
2022/11/04 15:05:01;;;;;;;7.15;3.47;;;;;;;-3.23;64.13;96024.53;6214045;28;20431;-67
2022/11/04 15:08:28;;;;;;;3.70;2.33;;;;;;;-3.22;64.35;96033.94;6172792;28;20128;-67
2022/11/04 15:15:02;;;;;;;3.72;2.00;;;;;;;-3.32;64.49;96042.75;6176115;28;20049;-67
2022/11/04 15:18:12;;;;;;;3.72;2.70;;;;;;;-3.43;65.15;96044.72;6183654;28;20047;-66
2022/11/04 15:21:18;;;;;;;6.60;2.90;;;;;;;-3.62;65.15;96040.03;6171207;28;20059;-66
2022/11/04 15:24:22;;;;;;;3.20;2.47;;;;;;;-3.71;65.64;96055.66;6188253;28;20043;-66
2022/11/04 15:27:29;;;;;;;2.38;2.05;;;;;;;-3.84;66.12;96049.94;6196168;28;20046;-70
2022/11/04 15:30:33;;;;;;;3.70;2.05;;;;;;;-3.99;65.86;96052.84;6184420;28;20034;-67
2022/11/04 15:33:45;;;;;;;5.22;3.00;;;;;;;-4.03;66.26;96052.94;6198163;28;20045;-66